sensor_id;sensor_type;location;lat;lon;timestamp;P1;durP1;ratioP1;P2;durP2;ratioP2
75772;SDS011;64381;0.000;0.000;2022-11-20T00:00:49;7.80;;;3.27;;
75772;SDS011;64381;0.000;0.000;2022-11-20T00:03:14;6.47;;;3.07;;
75772;SDS011;64381;0.000;0.000;2022-11-20T00:05:39;6.73;;;3.30;;
75772;SDS011;64381;0.000;0.000;2022-11-20T00:08:05;7.55;;;3.78;;
75772;SDS011;64381;0.000;0.000;2022-11-20T00:10:30;8.90;;;3.43;;
75772;SDS011;64381;0.000;0.000;2022-11-20T00:12:57;6.57;;;3.23;;
75772;SDS011;64381;0.000;0.000;2022-11-20T00:15:23;8.45;;;3.78;;
75772;SDS011;64381;0.000;0.000;2022-11-20T00:17:48;5.93;;;3.03;;
75772;SDS011;64381;0.000;0.000;2022-11-20T00:20:14;6.93;;;3.40;;
75772;SDS011;64381;0.000;0.000;2022-11-20T00:22:39;8.27;;;3.10;;
75772;SDS011;64381;0.000;0.000;2022-11-20T00:25:04;7.30;;;3.10;;
75772;SDS011;64381;0.000;0.000;2022-11-20T00:27:30;7.70;;;3.30;;
75772;SDS011;64381;0.000;0.000;2022-11-20T00:29:55;6.40;;;2.83;;
75772;SDS011;64381;0.000;0.000;2022-11-20T00:32:20;6.90;;;3.13;;
75772;SDS011;64381;0.000;0.000;2022-11-20T00:34:45;7.17;;;3.00;;
75772;SDS011;64381;0.000;0.000;2022-11-20T00:37:11;5.30;;;2.80;;
75772;SDS011;64381;0.000;0.000;2022-11-20T00:39:36;7.53;;;2.97;;
75772;SDS011;64381;0.000;0.000;2022-11-20T00:42:01;6.70;;;3.40;;
75772;SDS011;64381;0.000;0.000;2022-11-20T00:44:26;5.90;;;3.00;;
75772;SDS011;64381;0.000;0.000;2022-11-20T00:46:52;6.07;;;3.27;;
75772;SDS011;64381;0.000;0.000;2022-11-20T00:49:17;6.30;;;3.47;;
75772;SDS011;64381;0.000;0.000;2022-11-20T00:51:42;5.83;;;2.93;;
75772;SDS011;64381;0.000;0.000;2022-11-20T00:54:07;6.20;;;2.93;;
75772;SDS011;64381;0.000;0.000;2022-11-20T00:56:32;5.43;;;2.80;;
75772;SDS011;64381;0.000;0.000;2022-11-20T00:58:59;6.20;;;2.87;;
75772;SDS011;64381;0.000;0.000;2022-11-20T01:01:25;5.75;;;2.78;;
75772;SDS011;64381;0.000;0.000;2022-11-20T01:03:52;5.80;;;2.55;;
75772;SDS011;64381;0.000;0.000;2022-11-20T01:06:19;6.87;;;3.10;;
75772;SDS011;64381;0.000;0.000;2022-11-20T01:08:47;5.63;;;2.65;;
75772;SDS011;64381;0.000;0.000;2022-11-20T01:11:17;6.32;;;2.80;;
75772;SDS011;64381;0.000;0.000;2022-11-20T01:13:48;6.60;;;2.80;;
75772;SDS011;64381;0.000;0.000;2022-11-20T01:16:18;5.65;;;2.75;;
75772;SDS011;64381;0.000;0.000;2022-11-20T01:18:45;6.50;;;2.53;;
75772;SDS011;64381;0.000;0.000;2022-11-20T01:21:16;6.05;;;2.90;;
75772;SDS011;64381;0.000;0.000;2022-11-20T01:23:43;5.82;;;2.65;;
75772;SDS011;64381;0.000;0.000;2022-11-20T01:26:10;5.88;;;2.55;;
75772;SDS011;64381;0.000;0.000;2022-11-20T01:28:38;4.93;;;2.60;;
75772;SDS011;64381;0.000;0.000;2022-11-20T01:31:37;5.30;;;2.90;;
75772;SDS011;64381;0.000;0.000;2022-11-20T01:34:00;5.22;;;2.33;;
75772;SDS011;64381;0.000;0.000;2022-11-20T01:36:28;5.10;;;2.53;;
75772;SDS011;64381;0.000;0.000;2022-11-20T01:38:57;6.32;;;2.72;;
75772;SDS011;64381;0.000;0.000;2022-11-20T01:41:24;5.47;;;2.65;;
75772;SDS011;64381;0.000;0.000;2022-11-20T01:43:51;5.38;;;2.53;;
75772;SDS011;64381;0.000;0.000;2022-11-20T01:46:17;5.33;;;2.50;;
75772;SDS011;64381;0.000;0.000;2022-11-20T01:51:42;4.75;;;2.20;;
75772;SDS011;64381;0.000;0.000;2022-11-20T01:54:15;5.25;;;2.45;;
75772;SDS011;64381;0.000;0.000;2022-11-20T01:56:44;5.40;;;2.40;;
75772;SDS011;64381;0.000;0.000;2022-11-20T01:59:13;5.32;;;2.42;;
75772;SDS011;64381;0.000;0.000;2022-11-20T02:01:41;4.40;;;2.17;;
75772;SDS011;64381;0.000;0.000;2022-11-20T02:04:06;5.43;;;2.70;;
75772;SDS011;64381;0.000;0.000;2022-11-20T02:09:04;5.20;;;2.30;;
75772;SDS011;64381;0.000;0.000;2022-11-20T02:11:30;4.70;;;2.53;;
75772;SDS011;64381;0.000;0.000;2022-11-20T02:13:56;5.45;;;2.55;;
75772;SDS011;64381;0.000;0.000;2022-11-20T02:16:25;4.87;;;2.40;;
75772;SDS011;64381;0.000;0.000;2022-11-20T02:18:54;4.95;;;2.30;;
75772;SDS011;64381;0.000;0.000;2022-11-20T02:26:22;4.90;;;2.20;;
75772;SDS011;64381;0.000;0.000;2022-11-20T02:28:48;4.80;;;2.33;;
75772;SDS011;64381;0.000;0.000;2022-11-20T02:31:14;4.30;;;2.30;;
75772;SDS011;64381;0.000;0.000;2022-11-20T02:33:39;5.05;;;2.20;;
75772;SDS011;64381;0.000;0.000;2022-11-20T02:36:05;4.97;;;2.28;;
75772;SDS011;64381;0.000;0.000;2022-11-20T02:38:33;3.80;;;2.07;;
75772;SDS011;64381;0.000;0.000;2022-11-20T02:40:58;4.03;;;2.00;;
75772;SDS011;64381;0.000;0.000;2022-11-20T02:43:23;4.30;;;2.00;;
75772;SDS011;64381;0.000;0.000;2022-11-20T02:45:49;4.73;;;2.00;;
75772;SDS011;64381;0.000;0.000;2022-11-20T02:48:14;4.50;;;2.13;;
75772;SDS011;64381;0.000;0.000;2022-11-20T02:50:39;3.93;;;2.00;;
75772;SDS011;64381;0.000;0.000;2022-11-20T02:53:05;3.87;;;2.00;;
75772;SDS011;64381;0.000;0.000;2022-11-20T02:55:30;4.30;;;2.20;;
75772;SDS011;64381;0.000;0.000;2022-11-20T02:57:56;3.78;;;1.92;;
75772;SDS011;64381;0.000;0.000;2022-11-20T03:00:21;4.80;;;2.25;;
75772;SDS011;64381;0.000;0.000;2022-11-20T03:02:46;4.73;;;2.10;;
75772;SDS011;64381;0.000;0.000;2022-11-20T03:05:12;4.17;;;2.00;;
75772;SDS011;64381;0.000;0.000;2022-11-20T03:07:37;3.93;;;1.93;;
75772;SDS011;64381;0.000;0.000;2022-11-20T03:10:02;3.90;;;2.00;;
75772;SDS011;64381;0.000;0.000;2022-11-20T03:12:28;4.00;;;1.90;;
75772;SDS011;64381;0.000;0.000;2022-11-20T03:14:54;3.70;;;1.83;;
75772;SDS011;64381;0.000;0.000;2022-11-20T03:17:19;4.23;;;2.23;;
75772;SDS011;64381;0.000;0.000;2022-11-20T03:19:44;4.33;;;1.97;;
75772;SDS011;64381;0.000;0.000;2022-11-20T03:22:09;3.87;;;1.80;;
75772;SDS011;64381;0.000;0.000;2022-11-20T03:24:35;3.73;;;2.10;;
75772;SDS011;64381;0.000;0.000;2022-11-20T03:27:00;3.80;;;1.63;;
75772;SDS011;64381;0.000;0.000;2022-11-20T03:29:25;4.50;;;2.10;;
75772;SDS011;64381;0.000;0.000;2022-11-20T03:31:50;4.13;;;1.83;;
75772;SDS011;64381;0.000;0.000;2022-11-20T03:34:16;4.13;;;1.80;;
75772;SDS011;64381;0.000;0.000;2022-11-20T03:36:42;4.03;;;1.70;;
75772;SDS011;64381;0.000;0.000;2022-11-20T03:39:07;4.23;;;1.90;;
75772;SDS011;64381;0.000;0.000;2022-11-20T03:41:37;4.10;;;1.80;;
75772;SDS011;64381;0.000;0.000;2022-11-20T03:44:05;3.75;;;1.83;;
75772;SDS011;64381;0.000;0.000;2022-11-20T03:46:32;4.15;;;1.88;;
75772;SDS011;64381;0.000;0.000;2022-11-20T03:48:57;3.83;;;2.10;;
75772;SDS011;64381;0.000;0.000;2022-11-20T03:51:24;3.57;;;1.90;;
75772;SDS011;64381;0.000;0.000;2022-11-20T03:53:51;3.83;;;1.75;;
75772;SDS011;64381;0.000;0.000;2022-11-20T03:56:21;3.63;;;1.77;;
75772;SDS011;64381;0.000;0.000;2022-11-20T03:58:49;3.60;;;1.73;;
75772;SDS011;64381;0.000;0.000;2022-11-20T04:01:16;3.55;;;1.80;;
75772;SDS011;64381;0.000;0.000;2022-11-20T04:03:45;3.30;;;1.70;;
75772;SDS011;64381;0.000;0.000;2022-11-20T04:06:11;4.00;;;1.87;;
75772;SDS011;64381;0.000;0.000;2022-11-20T04:08:41;3.22;;;1.67;;
75772;SDS011;64381;0.000;0.000;2022-11-20T04:11:11;3.63;;;1.80;;
75772;SDS011;64381;0.000;0.000;2022-11-20T04:13:47;3.72;;;1.75;;
75772;SDS011;64381;0.000;0.000;2022-11-20T04:16:17;3.80;;;1.85;;
75772;SDS011;64381;0.000;0.000;2022-11-20T04:18:42;3.43;;;1.80;;
75772;SDS011;64381;0.000;0.000;2022-11-20T04:21:08;3.58;;;1.67;;
75772;SDS011;64381;0.000;0.000;2022-11-20T04:23:34;3.40;;;1.70;;
75772;SDS011;64381;0.000;0.000;2022-11-20T04:28:29;3.70;;;1.65;;
75772;SDS011;64381;0.000;0.000;2022-11-20T04:30:54;4.03;;;1.93;;
75772;SDS011;64381;0.000;0.000;2022-11-20T04:33:19;3.80;;;1.90;;
75772;SDS011;64381;0.000;0.000;2022-11-20T04:35:44;3.37;;;1.80;;
75772;SDS011;64381;0.000;0.000;2022-11-20T04:38:12;3.65;;;1.75;;
75772;SDS011;64381;0.000;0.000;2022-11-20T04:40:37;3.93;;;1.70;;
75772;SDS011;64381;0.000;0.000;2022-11-20T04:43:03;3.50;;;1.77;;
75772;SDS011;64381;0.000;0.000;2022-11-20T04:45:28;3.73;;;1.77;;
75772;SDS011;64381;0.000;0.000;2022-11-20T04:47:53;3.70;;;1.73;;
75772;SDS011;64381;0.000;0.000;2022-11-20T04:50:18;3.20;;;1.60;;
75772;SDS011;64381;0.000;0.000;2022-11-20T04:52:44;3.73;;;1.70;;
75772;SDS011;64381;0.000;0.000;2022-11-20T04:55:09;3.80;;;1.77;;
75772;SDS011;64381;0.000;0.000;2022-11-20T04:57:34;3.37;;;1.53;;
75772;SDS011;64381;0.000;0.000;2022-11-20T04:59:59;3.60;;;1.80;;
75772;SDS011;64381;0.000;0.000;2022-11-20T05:02:24;3.60;;;1.70;;
75772;SDS011;64381;0.000;0.000;2022-11-20T05:04:50;3.57;;;1.80;;
75772;SDS011;64381;0.000;0.000;2022-11-20T05:07:15;3.20;;;1.60;;
75772;SDS011;64381;0.000;0.000;2022-11-20T05:09:40;3.40;;;1.53;;
75772;SDS011;64381;0.000;0.000;2022-11-20T05:12:09;3.50;;;1.80;;
75772;SDS011;64381;0.000;0.000;2022-11-20T05:14:34;3.70;;;1.80;;
75772;SDS011;64381;0.000;0.000;2022-11-20T05:16:59;3.20;;;1.50;;
75772;SDS011;64381;0.000;0.000;2022-11-20T05:19:25;3.60;;;1.60;;
75772;SDS011;64381;0.000;0.000;2022-11-20T05:21:50;3.17;;;1.60;;
75772;SDS011;64381;0.000;0.000;2022-11-20T05:24:15;3.13;;;1.50;;
75772;SDS011;64381;0.000;0.000;2022-11-20T05:26:40;3.63;;;1.87;;
75772;SDS011;64381;0.000;0.000;2022-11-20T05:29:06;3.10;;;1.60;;
75772;SDS011;64381;0.000;0.000;2022-11-20T05:31:31;2.90;;;1.60;;
75772;SDS011;64381;0.000;0.000;2022-11-20T05:33:56;3.10;;;1.50;;
75772;SDS011;64381;0.000;0.000;2022-11-20T05:36:22;3.45;;;1.50;;
75772;SDS011;64381;0.000;0.000;2022-11-20T05:38:47;3.00;;;1.50;;
75772;SDS011;64381;0.000;0.000;2022-11-20T05:41:13;3.10;;;1.70;;
75772;SDS011;64381;0.000;0.000;2022-11-20T05:43:40;3.10;;;1.50;;
75772;SDS011;64381;0.000;0.000;2022-11-20T05:46:09;3.45;;;1.65;;
75772;SDS011;64381;0.000;0.000;2022-11-20T05:48:36;3.17;;;1.47;;
75772;SDS011;64381;0.000;0.000;2022-11-20T05:51:03;3.13;;;1.52;;
75772;SDS011;64381;0.000;0.000;2022-11-20T05:53:30;3.28;;;1.60;;
75772;SDS011;64381;0.000;0.000;2022-11-20T05:56:00;3.00;;;1.50;;
75772;SDS011;64381;0.000;0.000;2022-11-20T05:58:28;3.05;;;1.80;;
75772;SDS011;64381;0.000;0.000;2022-11-20T06:00:53;3.03;;;1.30;;
75772;SDS011;64381;0.000;0.000;2022-11-20T06:03:19;3.10;;;1.70;;
75772;SDS011;64381;0.000;0.000;2022-11-20T06:05:44;2.95;;;1.45;;
75772;SDS011;64381;0.000;0.000;2022-11-20T06:08:10;3.17;;;1.40;;
75772;SDS011;64381;0.000;0.000;2022-11-20T06:10:35;3.00;;;1.60;;
75772;SDS011;64381;0.000;0.000;2022-11-20T06:13:00;3.17;;;1.40;;
75772;SDS011;64381;0.000;0.000;2022-11-20T06:15:26;2.90;;;1.50;;
75772;SDS011;64381;0.000;0.000;2022-11-20T06:17:52;2.90;;;1.50;;
75772;SDS011;64381;0.000;0.000;2022-11-20T06:20:18;3.20;;;1.52;;
75772;SDS011;64381;0.000;0.000;2022-11-20T06:22:43;3.60;;;1.50;;
75772;SDS011;64381;0.000;0.000;2022-11-20T06:25:08;2.87;;;1.40;;
75772;SDS011;64381;0.000;0.000;2022-11-20T06:27:33;3.43;;;1.70;;
75772;SDS011;64381;0.000;0.000;2022-11-20T06:29:58;3.47;;;1.40;;
75772;SDS011;64381;0.000;0.000;2022-11-20T06:32:24;3.00;;;1.60;;
75772;SDS011;64381;0.000;0.000;2022-11-20T06:34:49;3.03;;;1.57;;
75772;SDS011;64381;0.000;0.000;2022-11-20T06:37:14;3.23;;;1.80;;
75772;SDS011;64381;0.000;0.000;2022-11-20T06:39:39;3.17;;;1.50;;
75772;SDS011;64381;0.000;0.000;2022-11-20T06:42:04;2.90;;;1.50;;
75772;SDS011;64381;0.000;0.000;2022-11-20T06:44:30;2.77;;;1.30;;
75772;SDS011;64381;0.000;0.000;2022-11-20T06:46:55;3.10;;;1.60;;
75772;SDS011;64381;0.000;0.000;2022-11-20T06:49:20;3.17;;;1.50;;
75772;SDS011;64381;0.000;0.000;2022-11-20T06:51:45;2.90;;;1.40;;
75772;SDS011;64381;0.000;0.000;2022-11-20T06:54:11;3.17;;;1.70;;
75772;SDS011;64381;0.000;0.000;2022-11-20T06:56:36;3.17;;;1.57;;
75772;SDS011;64381;0.000;0.000;2022-11-20T06:59:03;2.80;;;1.40;;
75772;SDS011;64381;0.000;0.000;2022-11-20T07:01:29;2.67;;;1.30;;
75772;SDS011;64381;0.000;0.000;2022-11-20T07:03:55;3.10;;;1.50;;
75772;SDS011;64381;0.000;0.000;2022-11-20T07:06:20;3.00;;;1.53;;
75772;SDS011;64381;0.000;0.000;2022-11-20T07:08:45;2.80;;;1.30;;
75772;SDS011;64381;0.000;0.000;2022-11-20T07:11:11;2.77;;;1.50;;
75772;SDS011;64381;0.000;0.000;2022-11-20T07:13:36;2.80;;;1.30;;
75772;SDS011;64381;0.000;0.000;2022-11-20T07:16:03;3.30;;;1.50;;
75772;SDS011;64381;0.000;0.000;2022-11-20T07:18:30;3.53;;;1.50;;
75772;SDS011;64381;0.000;0.000;2022-11-20T07:20:59;3.00;;;1.43;;
75772;SDS011;64381;0.000;0.000;2022-11-20T07:23:25;3.53;;;1.55;;
75772;SDS011;64381;0.000;0.000;2022-11-20T07:25:50;3.00;;;1.53;;
75772;SDS011;64381;0.000;0.000;2022-11-20T07:28:16;3.30;;;1.50;;
75772;SDS011;64381;0.000;0.000;2022-11-20T07:30:41;2.80;;;1.60;;
75772;SDS011;64381;0.000;0.000;2022-11-20T07:33:06;2.80;;;1.40;;
75772;SDS011;64381;0.000;0.000;2022-11-20T07:35:31;3.20;;;1.50;;
75772;SDS011;64381;0.000;0.000;2022-11-20T07:37:57;3.63;;;1.50;;
75772;SDS011;64381;0.000;0.000;2022-11-20T07:40:22;3.00;;;1.40;;
75772;SDS011;64381;0.000;0.000;2022-11-20T07:42:50;3.37;;;1.40;;
75772;SDS011;64381;0.000;0.000;2022-11-20T07:45:17;2.90;;;1.63;;
75772;SDS011;64381;0.000;0.000;2022-11-20T07:47:43;3.17;;;1.58;;
75772;SDS011;64381;0.000;0.000;2022-11-20T07:50:08;2.90;;;1.50;;
75772;SDS011;64381;0.000;0.000;2022-11-20T07:52:34;2.90;;;1.30;;
75772;SDS011;64381;0.000;0.000;2022-11-20T07:54:59;2.70;;;1.30;;
75772;SDS011;64381;0.000;0.000;2022-11-20T07:57:24;3.07;;;1.30;;
75772;SDS011;64381;0.000;0.000;2022-11-20T07:59:50;3.13;;;1.40;;
75772;SDS011;64381;0.000;0.000;2022-11-20T08:02:15;2.70;;;1.33;;
75772;SDS011;64381;0.000;0.000;2022-11-20T08:04:40;2.90;;;1.40;;
75772;SDS011;64381;0.000;0.000;2022-11-20T08:07:05;3.10;;;1.63;;
75772;SDS011;64381;0.000;0.000;2022-11-20T08:09:31;2.70;;;1.40;;
75772;SDS011;64381;0.000;0.000;2022-11-20T08:11:56;2.80;;;1.40;;
75772;SDS011;64381;0.000;0.000;2022-11-20T08:14:21;3.00;;;1.40;;
75772;SDS011;64381;0.000;0.000;2022-11-20T08:16:47;3.07;;;1.40;;
75772;SDS011;64381;0.000;0.000;2022-11-20T08:19:14;2.88;;;1.30;;
75772;SDS011;64381;0.000;0.000;2022-11-20T08:21:41;2.70;;;1.50;;
75772;SDS011;64381;0.000;0.000;2022-11-20T08:24:06;3.33;;;1.50;;
75772;SDS011;64381;0.000;0.000;2022-11-20T08:26:33;2.70;;;1.20;;
75772;SDS011;64381;0.000;0.000;2022-11-20T08:28:59;3.30;;;1.50;;
75772;SDS011;64381;0.000;0.000;2022-11-20T08:31:24;4.23;;;1.50;;
75772;SDS011;64381;0.000;0.000;2022-11-20T08:33:51;3.53;;;1.30;;
75772;SDS011;64381;0.000;0.000;2022-11-20T08:36:17;3.97;;;1.23;;
75772;SDS011;64381;0.000;0.000;2022-11-20T08:38:46;3.20;;;1.30;;
75772;SDS011;64381;0.000;0.000;2022-11-20T08:41:12;4.28;;;1.10;;
75772;SDS011;64381;0.000;0.000;2022-11-20T08:43:37;2.70;;;1.30;;
75772;SDS011;64381;0.000;0.000;2022-11-20T08:46:03;2.80;;;1.30;;
75772;SDS011;64381;0.000;0.000;2022-11-20T08:48:28;3.33;;;1.30;;
75772;SDS011;64381;0.000;0.000;2022-11-20T08:50:53;2.70;;;1.40;;
75772;SDS011;64381;0.000;0.000;2022-11-20T08:53:22;2.60;;;1.40;;
75772;SDS011;64381;0.000;0.000;2022-11-20T08:55:47;3.53;;;1.20;;
75772;SDS011;64381;0.000;0.000;2022-11-20T08:58:12;3.00;;;1.40;;
75772;SDS011;64381;0.000;0.000;2022-11-20T09:00:37;3.13;;;1.33;;
75772;SDS011;64381;0.000;0.000;2022-11-20T09:03:03;2.90;;;1.33;;
75772;SDS011;64381;0.000;0.000;2022-11-20T09:05:28;3.40;;;1.40;;
75772;SDS011;64381;0.000;0.000;2022-11-20T09:07:57;2.50;;;1.20;;
75772;SDS011;64381;0.000;0.000;2022-11-20T09:10:23;2.95;;;1.20;;
75772;SDS011;64381;0.000;0.000;2022-11-20T09:12:48;2.40;;;1.10;;
75772;SDS011;64381;0.000;0.000;2022-11-20T09:15:14;2.90;;;1.17;;
75772;SDS011;64381;0.000;0.000;2022-11-20T09:17:39;3.17;;;1.20;;
75772;SDS011;64381;0.000;0.000;2022-11-20T09:20:04;3.13;;;1.27;;
75772;SDS011;64381;0.000;0.000;2022-11-20T09:22:30;2.60;;;1.23;;
75772;SDS011;64381;0.000;0.000;2022-11-20T09:24:55;2.60;;;1.13;;
75772;SDS011;64381;0.000;0.000;2022-11-20T09:27:20;2.50;;;1.00;;
75772;SDS011;64381;0.000;0.000;2022-11-20T09:29:45;2.33;;;1.03;;
75772;SDS011;64381;0.000;0.000;2022-11-20T09:32:11;2.50;;;1.10;;
75772;SDS011;64381;0.000;0.000;2022-11-20T09:34:36;2.90;;;1.20;;
75772;SDS011;64381;0.000;0.000;2022-11-20T09:37:01;2.60;;;1.10;;
75772;SDS011;64381;0.000;0.000;2022-11-20T09:39:26;2.67;;;1.20;;
75772;SDS011;64381;0.000;0.000;2022-11-20T09:42:08;2.80;;;1.20;;
75772;SDS011;64381;0.000;0.000;2022-11-20T09:52:53;2.53;;;1.10;;
75772;SDS011;64381;0.000;0.000;2022-11-20T09:55:24;2.37;;;1.00;;
75772;SDS011;64381;0.000;0.000;2022-11-20T09:57:50;3.20;;;1.13;;
75772;SDS011;64381;0.000;0.000;2022-11-20T10:00:17;2.50;;;1.00;;
75772;SDS011;64381;0.000;0.000;2022-11-20T10:10:54;2.38;;;0.88;;
75772;SDS011;64381;0.000;0.000;2022-11-20T10:27:27;2.50;;;1.00;;
75772;SDS011;64381;0.000;0.000;2022-11-20T10:30:12;2.50;;;1.00;;
75772;SDS011;64381;0.000;0.000;2022-11-20T10:32:45;2.70;;;0.90;;
75772;SDS011;64381;0.000;0.000;2022-11-20T10:37:55;2.80;;;1.20;;
75772;SDS011;64381;0.000;0.000;2022-11-20T10:40:38;2.50;;;1.10;;
75772;SDS011;64381;0.000;0.000;2022-11-20T10:43:28;2.30;;;0.90;;
75772;SDS011;64381;0.000;0.000;2022-11-20T10:45:58;2.70;;;1.10;;
75772;SDS011;64381;0.000;0.000;2022-11-20T10:48:28;2.30;;;1.00;;
75772;SDS011;64381;0.000;0.000;2022-11-20T10:51:10;2.63;;;1.10;;
75772;SDS011;64381;0.000;0.000;2022-11-20T10:56:25;2.40;;;1.00;;
75772;SDS011;64381;0.000;0.000;2022-11-20T11:01:25;2.50;;;1.10;;
75772;SDS011;64381;0.000;0.000;2022-11-20T11:03:50;2.60;;;1.10;;
75772;SDS011;64381;0.000;0.000;2022-11-20T11:09:04;2.40;;;1.00;;
75772;SDS011;64381;0.000;0.000;2022-11-20T11:11:37;2.50;;;1.20;;
75772;SDS011;64381;0.000;0.000;2022-11-20T11:14:07;2.53;;;1.10;;
75772;SDS011;64381;0.000;0.000;2022-11-20T11:19:17;2.40;;;1.02;;
75772;SDS011;64381;0.000;0.000;2022-11-20T11:21:46;2.53;;;1.20;;
75772;SDS011;64381;0.000;0.000;2022-11-20T11:24:20;2.45;;;1.10;;
75772;SDS011;64381;0.000;0.000;2022-11-20T11:26:57;2.50;;;1.00;;
75772;SDS011;64381;0.000;0.000;2022-11-20T11:29:24;2.40;;;1.10;;
75772;SDS011;64381;0.000;0.000;2022-11-20T11:31:49;2.30;;;0.90;;
75772;SDS011;64381;0.000;0.000;2022-11-20T11:34:16;2.53;;;1.07;;
75772;SDS011;64381;0.000;0.000;2022-11-20T11:36:48;2.50;;;1.00;;
75772;SDS011;64381;0.000;0.000;2022-11-20T11:39:21;3.30;;;1.10;;
75772;SDS011;64381;0.000;0.000;2022-11-20T11:41:46;2.65;;;1.00;;
75772;SDS011;64381;0.000;0.000;2022-11-20T11:44:15;2.60;;;1.10;;
75772;SDS011;64381;0.000;0.000;2022-11-20T11:46:54;2.63;;;1.20;;
75772;SDS011;64381;0.000;0.000;2022-11-20T11:49:21;2.33;;;1.05;;
75772;SDS011;64381;0.000;0.000;2022-11-20T11:54:20;2.70;;;1.20;;
75772;SDS011;64381;0.000;0.000;2022-11-20T11:56:49;2.85;;;1.00;;
75772;SDS011;64381;0.000;0.000;2022-11-20T11:59:17;2.80;;;1.20;;
75772;SDS011;64381;0.000;0.000;2022-11-20T12:02:02;2.58;;;1.10;;
75772;SDS011;64381;0.000;0.000;2022-11-20T12:04:42;2.60;;;1.10;;
75772;SDS011;64381;0.000;0.000;2022-11-20T12:07:13;3.60;;;1.20;;
75772;SDS011;64381;0.000;0.000;2022-11-20T12:09:46;2.60;;;1.10;;
75772;SDS011;64381;0.000;0.000;2022-11-20T12:12:18;3.03;;;1.33;;
75772;SDS011;64381;0.000;0.000;2022-11-20T12:14:47;2.92;;;1.08;;
75772;SDS011;64381;0.000;0.000;2022-11-20T12:17:14;3.37;;;1.30;;
75772;SDS011;64381;0.000;0.000;2022-11-20T12:19:39;2.73;;;1.10;;
75772;SDS011;64381;0.000;0.000;2022-11-20T12:25:12;2.50;;;1.10;;
75772;SDS011;64381;0.000;0.000;2022-11-20T12:33:47;2.40;;;0.90;;
75772;SDS011;64381;0.000;0.000;2022-11-20T12:36:50;3.22;;;1.00;;
75772;SDS011;64381;0.000;0.000;2022-11-20T12:39:41;2.40;;;1.10;;
75772;SDS011;64381;0.000;0.000;2022-11-20T12:45:02;3.03;;;1.20;;
75772;SDS011;64381;0.000;0.000;2022-11-20T12:50:08;2.63;;;1.23;;
75772;SDS011;64381;0.000;0.000;2022-11-20T12:53:02;2.40;;;1.00;;
75772;SDS011;64381;0.000;0.000;2022-11-20T12:55:32;2.55;;;1.10;;
75772;SDS011;64381;0.000;0.000;2022-11-20T13:01:25;2.47;;;1.10;;
75772;SDS011;64381;0.000;0.000;2022-11-20T13:04:07;2.80;;;1.17;;
75772;SDS011;64381;0.000;0.000;2022-11-20T13:06:33;2.90;;;1.20;;
75772;SDS011;64381;0.000;0.000;2022-11-20T13:08:59;2.50;;;1.20;;
75772;SDS011;64381;0.000;0.000;2022-11-20T13:11:43;2.80;;;1.10;;
75772;SDS011;64381;0.000;0.000;2022-11-20T13:19:33;2.50;;;1.20;;
75772;SDS011;64381;0.000;0.000;2022-11-20T13:21:59;2.50;;;1.10;;
75772;SDS011;64381;0.000;0.000;2022-11-20T13:24:26;2.60;;;1.13;;
75772;SDS011;64381;0.000;0.000;2022-11-20T13:32:53;2.83;;;1.10;;
75772;SDS011;64381;0.000;0.000;2022-11-20T13:36:03;2.42;;;1.00;;
75772;SDS011;64381;0.000;0.000;2022-11-20T13:38:19;2.40;;;0.95;;
75772;SDS011;64381;0.000;0.000;2022-11-20T13:40:55;2.37;;;1.00;;
75772;SDS011;64381;0.000;0.000;2022-11-20T13:43:23;2.33;;;0.85;;
75772;SDS011;64381;0.000;0.000;2022-11-20T13:46:04;2.50;;;1.10;;
75772;SDS011;64381;0.000;0.000;2022-11-20T13:48:32;2.30;;;0.93;;
75772;SDS011;64381;0.000;0.000;2022-11-20T13:56:28;3.03;;;1.00;;
75772;SDS011;64381;0.000;0.000;2022-11-20T13:59:19;3.15;;;1.10;;
75772;SDS011;64381;0.000;0.000;2022-11-20T14:01:49;2.80;;;1.00;;
75772;SDS011;64381;0.000;0.000;2022-11-20T14:04:18;2.40;;;1.00;;
75772;SDS011;64381;0.000;0.000;2022-11-20T14:06:51;3.10;;;1.20;;
75772;SDS011;64381;0.000;0.000;2022-11-20T14:09:26;2.88;;;1.15;;
75772;SDS011;64381;0.000;0.000;2022-11-20T14:11:56;2.80;;;1.10;;
75772;SDS011;64381;0.000;0.000;2022-11-20T14:14:25;2.50;;;1.10;;
75772;SDS011;64381;0.000;0.000;2022-11-20T14:16:52;2.40;;;1.00;;
75772;SDS011;64381;0.000;0.000;2022-11-20T14:22:08;2.67;;;1.20;;
75772;SDS011;64381;0.000;0.000;2022-11-20T14:24:40;2.70;;;1.20;;
75772;SDS011;64381;0.000;0.000;2022-11-20T14:27:10;2.53;;;1.07;;
75772;SDS011;64381;0.000;0.000;2022-11-20T14:29:37;2.72;;;1.00;;
75772;SDS011;64381;0.000;0.000;2022-11-20T14:32:03;3.13;;;1.20;;
75772;SDS011;64381;0.000;0.000;2022-11-20T14:34:30;2.73;;;1.20;;
75772;SDS011;64381;0.000;0.000;2022-11-20T14:37:01;2.47;;;1.10;;
75772;SDS011;64381;0.000;0.000;2022-11-20T14:39:32;2.50;;;1.20;;
75772;SDS011;64381;0.000;0.000;2022-11-20T14:42:00;2.63;;;1.17;;
75772;SDS011;64381;0.000;0.000;2022-11-20T14:44:29;2.87;;;1.20;;
75772;SDS011;64381;0.000;0.000;2022-11-20T14:46:56;2.70;;;1.17;;
75772;SDS011;64381;0.000;0.000;2022-11-20T14:49:22;3.53;;;1.57;;
75772;SDS011;64381;0.000;0.000;2022-11-20T14:51:57;3.58;;;1.40;;
75772;SDS011;64381;0.000;0.000;2022-11-20T14:54:27;3.80;;;1.70;;
75772;SDS011;64381;0.000;0.000;2022-11-20T14:59:28;4.45;;;1.50;;
75772;SDS011;64381;0.000;0.000;2022-11-20T15:02:02;3.47;;;1.40;;
75772;SDS011;64381;0.000;0.000;2022-11-20T15:04:30;3.20;;;1.50;;
75772;SDS011;64381;0.000;0.000;2022-11-20T15:06:57;3.10;;;1.38;;
75772;SDS011;64381;0.000;0.000;2022-11-20T15:09:24;3.07;;;1.30;;
75772;SDS011;64381;0.000;0.000;2022-11-20T15:12:00;3.20;;;1.40;;
75772;SDS011;64381;0.000;0.000;2022-11-20T15:14:27;2.88;;;1.23;;
75772;SDS011;64381;0.000;0.000;2022-11-20T15:16:53;4.72;;;1.50;;
75772;SDS011;64381;0.000;0.000;2022-11-20T15:19:23;2.72;;;1.30;;
75772;SDS011;64381;0.000;0.000;2022-11-20T15:21:49;2.72;;;1.40;;
75772;SDS011;64381;0.000;0.000;2022-11-20T15:24:15;2.60;;;1.30;;
75772;SDS011;64381;0.000;0.000;2022-11-20T15:26:40;3.33;;;1.20;;
75772;SDS011;64381;0.000;0.000;2022-11-20T15:29:10;2.80;;;1.23;;
75772;SDS011;64381;0.000;0.000;2022-11-20T15:31:37;2.58;;;1.20;;
75772;SDS011;64381;0.000;0.000;2022-11-20T15:34:05;3.08;;;1.50;;
75772;SDS011;64381;0.000;0.000;2022-11-20T15:36:30;3.30;;;1.17;;
75772;SDS011;64381;0.000;0.000;2022-11-20T15:38:55;2.57;;;1.00;;
75772;SDS011;64381;0.000;0.000;2022-11-20T15:41:20;2.67;;;1.10;;
75772;SDS011;64381;0.000;0.000;2022-11-20T15:43:46;3.37;;;1.30;;
75772;SDS011;64381;0.000;0.000;2022-11-20T15:46:12;2.85;;;1.27;;
75772;SDS011;64381;0.000;0.000;2022-11-20T15:48:44;3.00;;;1.47;;
75772;SDS011;64381;0.000;0.000;2022-11-20T15:53:35;12.40;;;2.07;;
75772;SDS011;64381;0.000;0.000;2022-11-20T15:56:04;10.07;;;2.00;;
75772;SDS011;64381;0.000;0.000;2022-11-20T15:58:30;7.60;;;1.80;;
75772;SDS011;64381;0.000;0.000;2022-11-20T16:00:55;8.83;;;1.97;;
75772;SDS011;64381;0.000;0.000;2022-11-20T16:03:21;4.75;;;1.95;;
75772;SDS011;64381;0.000;0.000;2022-11-20T16:05:46;5.82;;;1.90;;
75772;SDS011;64381;0.000;0.000;2022-11-20T16:08:12;8.73;;;2.10;;
75772;SDS011;64381;0.000;0.000;2022-11-20T16:10:38;5.57;;;1.50;;
75772;SDS011;64381;0.000;0.000;2022-11-20T16:13:03;4.10;;;1.65;;
75772;SDS011;64381;0.000;0.000;2022-11-20T16:15:28;6.13;;;1.50;;
75772;SDS011;64381;0.000;0.000;2022-11-20T16:17:54;4.50;;;1.90;;
75772;SDS011;64381;0.000;0.000;2022-11-20T16:20:19;3.77;;;1.57;;
75772;SDS011;64381;0.000;0.000;2022-11-20T16:22:44;3.37;;;1.60;;
75772;SDS011;64381;0.000;0.000;2022-11-20T16:25:09;3.63;;;1.60;;
75772;SDS011;64381;0.000;0.000;2022-11-20T16:27:34;4.57;;;2.10;;
75772;SDS011;64381;0.000;0.000;2022-11-20T16:30:00;4.20;;;1.80;;
75772;SDS011;64381;0.000;0.000;2022-11-20T16:32:25;4.30;;;1.87;;
75772;SDS011;64381;0.000;0.000;2022-11-20T16:34:50;4.20;;;1.80;;
75772;SDS011;64381;0.000;0.000;2022-11-20T16:37:15;4.23;;;1.97;;
75772;SDS011;64381;0.000;0.000;2022-11-20T16:39:41;4.00;;;1.97;;
75772;SDS011;64381;0.000;0.000;2022-11-20T16:42:06;3.43;;;1.80;;
75772;SDS011;64381;0.000;0.000;2022-11-20T16:44:31;3.23;;;1.60;;